Time;durP1;ratioP1;P1;durP2;ratioP2;P2;SDS_P1;SDS_P2;PMS_P1;PMS_P2;Temp;Humidity;BMP_temperature;BMP_pressure;BME280_temperature;BME280_humidity;BME280_pressure;Samples;Min_cycle;Max_cycle;Signal;HPM_P1;HPM_P2
2021/05/22 00:01:00;;;;;;;3.10;0.77;;;18.90;88.20;;;;;;5034300;28;20079;-60
2021/05/22 00:03:25;;;;;;;3.40;0.90;;;18.90;88.30;;;;;;5034314;28;20404;-61
2021/05/22 00:05:51;;;;;;;3.35;1.20;;;18.90;88.30;;;;;;5034245;28;20025;-61
2021/05/22 00:08:17;;;;;;;3.35;1.08;;;18.90;88.30;;;;;;5033673;28;20028;-60
2021/05/22 00:10:43;;;;;;;3.08;1.00;;;18.80;88.30;;;;;;5034198;28;20053;-61
2021/05/22 00:13:09;;;;;;;3.85;1.00;;;18.80;88.30;;;;;;5034120;28;20105;-61
2021/05/22 00:15:35;;;;;;;3.15;0.80;;;18.80;88.40;;;;;;5032783;28;20026;-61
2021/05/22 00:18:00;;;;;;;2.78;0.98;;;18.80;88.50;;;;;;5015236;28;20065;-60
2021/05/22 00:20:26;;;;;;;3.65;1.10;;;18.80;88.50;;;;;;5014222;28;20098;-61
2021/05/22 00:22:52;;;;;;;2.92;0.85;;;18.80;88.50;;;;;;5014102;28;20018;-62
2021/05/22 00:25:18;;;;;;;3.65;0.90;;;18.80;88.50;;;;;;5018901;28;20481;-62
2021/05/22 00:27:43;;;;;;;2.40;0.82;;;18.70;88.50;;;;;;5033779;28;20532;-61
2021/05/22 00:30:10;;;;;;;2.40;0.80;;;18.70;88.60;;;;;;5034040;28;20117;-61
2021/05/22 00:32:36;;;;;;;2.65;0.70;;;18.70;88.60;;;;;;5033832;28;20112;-61
2021/05/22 00:35:03;;;;;;;2.70;0.80;;;18.70;88.60;;;;;;5033335;28;20021;-59
2021/05/22 00:37:28;;;;;;;3.20;0.88;;;18.70;88.80;;;;;;5033465;28;20022;-61
2021/05/22 00:39:54;;;;;;;2.72;1.10;;;18.70;88.80;;;;;;5033521;28;20032;-62
2021/05/22 00:42:20;;;;;;;2.63;0.60;;;18.60;88.70;;;;;;5030012;28;20040;-61
2021/05/22 00:45:21;;;;;;;1.95;0.85;;;18.60;88.70;;;;;;5013694;28;20064;-61
2021/05/22 00:47:53;;;;;;;2.10;0.80;;;18.60;88.70;;;;;;5013933;28;20026;-60
2021/05/22 00:50:25;;;;;;;4.07;0.70;;;18.60;88.70;;;;;;5013479;28;20375;-62
2021/05/22 00:52:51;;;;;;;2.70;0.77;;;18.60;88.70;;;;;;5013902;28;20018;-61
2021/05/22 00:55:18;;;;;;;2.53;0.80;;;18.60;88.70;;;;;;5013495;28;20030;-61
2021/05/22 00:57:44;;;;;;;3.10;0.90;;;18.60;88.80;;;;;;5013377;28;20037;-62
2021/05/22 01:00:14;;;;;;;3.15;0.90;;;18.60;88.90;;;;;;5013912;28;20037;-61
2021/05/22 01:02:41;;;;;;;2.58;0.60;;;18.50;88.90;;;;;;5013848;28;20369;-62
2021/05/22 01:05:07;;;;;;;2.05;0.85;;;18.50;88.90;;;;;;5013267;28;20117;-61
2021/05/22 01:07:33;;;;;;;3.50;0.90;;;18.50;88.90;;;;;;5013291;28;20053;-61
2021/05/22 01:10:01;;;;;;;2.65;1.10;;;18.50;88.90;;;;;;5031364;28;20030;-61
2021/05/22 01:12:33;;;;;;;3.55;0.93;;;18.50;88.90;;;;;;5032943;28;20108;-61
2021/05/22 01:15:09;;;;;;;1.25;0.73;;;18.50;89.00;;;;;;5033079;28;20026;-60
2021/05/22 01:17:38;;;;;;;3.03;0.80;;;18.50;89.00;;;;;;5017662;28;20029;-61
2021/05/22 01:20:16;;;;;;;2.30;0.90;;;18.50;89.10;;;;;;5013256;28;20026;-61
2021/05/22 01:22:45;;;;;;;2.63;0.90;;;18.50;89.10;;;;;;5013210;28;20025;-63
2021/05/22 01:25:28;;;;;;;2.75;0.68;;;18.40;89.10;;;;;;5012999;28;20026;-61
2021/05/22 01:27:54;;;;;;;3.75;0.95;;;18.50;89.20;;;;;;5013381;28;20022;-61
2021/05/22 01:30:20;;;;;;;3.20;0.80;;;18.40;89.00;;;;;;5013244;28;20065;-61
2021/05/22 01:32:46;;;;;;;3.22;0.95;;;18.40;89.10;;;;;;5012836;28;20061;-61
2021/05/22 01:35:13;;;;;;;2.97;0.90;;;18.40;89.20;;;;;;5014809;28;20363;-61
2021/05/22 01:37:39;;;;;;;2.78;0.80;;;18.40;89.10;;;;;;5012743;28;20401;-61
2021/05/22 01:40:06;;;;;;;2.45;0.93;;;18.30;89.20;;;;;;5012755;28;20029;-60
2021/05/22 01:42:33;;;;;;;1.75;0.75;;;18.40;89.20;;;;;;5012509;28;20032;-61
2021/05/22 01:45:00;;;;;;;4.10;1.00;;;18.40;89.20;;;;;;5012871;28;20030;-61
2021/05/22 01:47:27;;;;;;;2.65;0.80;;;18.30;89.30;;;;;;5027724;28;20036;-61
2021/05/22 01:49:53;;;;;;;2.45;0.93;;;18.30;89.30;;;;;;5013285;28;20433;-61
2021/05/22 01:52:21;;;;;;;2.30;0.60;;;18.30;89.30;;;;;;5012537;28;20026;-62
2021/05/22 01:54:49;;;;;;;2.17;0.70;;;18.30;89.30;;;;;;5012729;28;20391;-61
2021/05/22 01:57:15;;;;;;;1.83;0.82;;;18.30;89.40;;;;;;5012342;28;20429;-61
2021/05/22 01:59:41;;;;;;;2.13;0.63;;;18.30;90.00;;;;;;5012365;28;20127;-62
2021/05/22 02:02:07;;;;;;;3.13;0.77;;;18.30;89.40;;;;;;5011783;28;20496;-62
2021/05/22 02:04:36;;;;;;;2.50;0.95;;;18.30;89.40;;;;;;5015809;28;20025;-61
2021/05/22 02:07:03;;;;;;;2.63;0.95;;;18.30;89.40;;;;;;5030118;28;20037;-61
2021/05/22 02:09:30;;;;;;;2.55;0.80;;;18.20;89.40;;;;;;5012286;28;20528;-61
2021/05/22 02:11:56;;;;;;;2.08;0.82;;;18.20;89.50;;;;;;5028092;28;20037;-61
2021/05/22 02:14:37;;;;;;;2.85;1.00;;;18.20;89.50;;;;;;5012720;28;20108;-61
2021/05/22 02:17:06;;;;;;;3.13;0.90;;;18.20;89.40;;;;;;5012118;28;20489;-62
2021/05/22 02:19:33;;;;;;;3.33;0.93;;;18.20;89.50;;;;;;5012039;28;20481;-60
2021/05/22 02:22:07;;;;;;;3.10;1.00;;;18.20;89.50;;;;;;5011971;28;20478;-61
2021/05/22 02:24:35;;;;;;;3.90;1.00;;;18.20;89.60;;;;;;5012737;28;20026;-61
2021/05/22 02:27:02;;;;;;;2.53;1.00;;;18.20;89.70;;;;;;5027316;28;20109;-61
2021/05/22 02:29:28;;;;;;;2.38;0.90;;;18.20;89.60;;;;;;5012196;28;20026;-62
2021/05/22 02:31:57;;;;;;;3.15;0.98;;;18.20;89.70;;;;;;5012423;28;20080;-61
2021/05/22 02:34:29;;;;;;;2.50;0.80;;;18.20;89.70;;;;;;5012688;28;20426;-60
2021/05/22 02:36:56;;;;;;;2.17;0.70;;;18.10;89.70;;;;;;5012359;28;20054;-61
2021/05/22 02:39:23;;;;;;;3.08;1.05;;;18.10;89.80;;;;;;5011987;28;20065;-61
2021/05/22 02:41:50;;;;;;;2.33;0.70;;;18.10;89.80;;;;;;5012505;28;20026;-61
2021/05/22 02:44:20;;;;;;;2.08;0.73;;;18.10;89.80;;;;;;5012021;28;20029;-60
2021/05/22 02:46:49;;;;;;;3.50;0.90;;;18.10;89.80;;;;;;5012257;28;20393;-61
2021/05/22 02:49:26;;;;;;;3.05;1.08;;;18.10;89.80;;;;;;5011889;28;20050;-61
2021/05/22 02:51:53;;;;;;;2.30;0.93;;;18.10;89.80;;;;;;5031237;28;20037;-61
2021/05/22 02:54:21;;;;;;;3.60;1.23;;;18.10;89.80;;;;;;5031682;28;20029;-62
2021/05/22 02:56:48;;;;;;;3.15;0.90;;;18.10;89.80;;;;;;5031606;28;20028;-61
2021/05/22 02:59:15;;;;;;;2.80;0.85;;;18.10;89.90;;;;;;5030719;28;20178;-61
2021/05/22 03:01:41;;;;;;;4.03;0.88;;;18.00;90.00;;;;;;5050229;28;20090;-62
2021/05/22 03:04:07;;;;;;;2.88;1.10;;;18.00;90.00;;;;;;5051369;28;20043;-62
2021/05/22 03:06:33;;;;;;;3.70;0.93;;;18.00;90.00;;;;;;5048113;28;20029;-61
2021/05/22 03:08:59;;;;;;;3.67;0.93;;;18.00;90.00;;;;;;5031545;28;20481;-61
2021/05/22 03:11:25;;;;;;;3.92;1.00;;;18.00;90.00;;;;;;5035984;28;20029;-61
2021/05/22 03:13:51;;;;;;;3.50;1.00;;;18.00;90.00;;;;;;5052293;28;20059;-61
2021/05/22 03:16:17;;;;;;;3.08;1.17;;;18.00;90.10;;;;;;5053666;28;20025;-61
2021/05/22 03:18:43;;;;;;;3.33;1.15;;;18.00;90.10;;;;;;5038787;28;20037;-60
2021/05/22 03:21:10;;;;;;;3.00;0.90;;;18.00;90.10;;;;;;5037223;28;20025;-61
2021/05/22 03:23:36;;;;;;;3.03;0.80;;;18.00;90.10;;;;;;5049464;28;20037;-61
2021/05/22 03:26:02;;;;;;;2.58;0.80;;;18.00;90.10;;;;;;5045343;28;20088;-61
2021/05/22 03:28:28;;;;;;;4.68;1.10;;;18.00;90.10;;;;;;5055357;28;20109;-61
2021/05/22 03:30:54;;;;;;;1.58;0.68;;;17.90;90.10;;;;;;5053411;28;20479;-61
2021/05/22 03:33:19;;;;;;;3.58;1.17;;;17.90;90.10;;;;;;5054795;28;20883;-61
2021/05/22 03:35:45;;;;;;;3.72;1.15;;;17.90;90.10;;;;;;5068725;28;20123;-61
2021/05/22 03:38:11;;;;;;;4.32;1.08;;;17.90;90.10;;;;;;5054625;28;20040;-61
2021/05/22 03:40:37;;;;;;;3.42;1.00;;;17.90;90.50;;;;;;5054696;28;20108;-62
2021/05/22 03:43:02;;;;;;;4.40;1.10;;;17.90;90.10;;;;;;5034120;28;20021;-62
2021/05/22 03:45:28;;;;;;;3.63;1.15;;;17.90;90.10;;;;;;5034731;28;20021;-61
2021/05/22 03:47:54;;;;;;;3.55;1.08;;;17.90;90.20;;;;;;5034016;28;20026;-61
2021/05/22 03:50:19;;;;;;;3.22;0.82;;;17.90;90.20;;;;;;5033407;28;20112;-61
2021/05/22 03:52:45;;;;;;;2.95;1.10;;;17.90;90.20;;;;;;5050531;28;20044;-61
2021/05/22 03:55:12;;;;;;;3.45;0.95;;;17.90;90.20;;;;;;5052605;28;20377;-61
2021/05/22 03:57:38;;;;;;;2.90;0.90;;;17.90;90.20;;;;;;5037217;28;20025;-61
2021/05/22 04:00:05;;;;;;;2.80;1.10;;;17.90;90.30;;;;;;5034161;28;20083;-61
2021/05/22 04:02:31;;;;;;;4.03;1.15;;;17.90;90.30;;;;;;5049102;28;20041;-61
2021/05/22 04:04:57;;;;;;;3.42;1.00;;;17.90;90.30;;;;;;5054237;28;20432;-62
2021/05/22 04:07:22;;;;;;;3.42;1.10;;;17.80;90.30;;;;;;5032728;28;20017;-61
2021/05/22 04:09:48;;;;;;;2.53;0.90;;;17.80;90.30;;;;;;5034224;28;20497;-62
2021/05/22 04:12:14;;;;;;;3.65;0.80;;;17.80;90.30;;;;;;5048619;28;20021;-61
2021/05/22 04:14:39;;;;;;;3.10;1.00;;;17.80;90.30;;;;;;5049295;28;20514;-61
2021/05/22 04:17:05;;;;;;;3.55;1.00;;;17.80;90.30;;;;;;5032952;28;20026;-61
2021/05/22 04:19:30;;;;;;;2.33;1.00;;;17.80;90.40;;;;;;5034056;28;20398;-61
2021/05/22 04:21:56;;;;;;;3.63;1.10;;;17.80;90.40;;;;;;5032044;28;20065;-61
2021/05/22 04:24:22;;;;;;;2.75;1.10;;;17.80;90.40;;;;;;5033892;28;20033;-61
2021/05/22 04:26:48;;;;;;;3.72;1.10;;;17.80;90.40;;;;;;5039509;28;20066;-60
2021/05/22 04:29:13;;;;;;;3.03;0.90;;;17.80;90.40;;;;;;5033798;28;20022;-61
2021/05/22 04:31:39;;;;;;;2.90;0.90;;;17.80;90.40;;;;;;5033678;28;20033;-61
2021/05/22 04:34:04;;;;;;;3.25;1.05;;;17.80;90.40;;;;;;5053633;28;20045;-61
2021/05/22 04:36:30;;;;;;;4.03;1.30;;;17.70;90.50;;;;;;5045955;28;20487;-61
2021/05/22 04:38:56;;;;;;;2.30;0.93;;;17.70;90.50;;;;;;5047131;28;20451;-61
2021/05/22 04:41:22;;;;;;;2.72;0.93;;;17.70;90.50;;;;;;5053444;28;20021;-60
2021/05/22 04:43:47;;;;;;;2.85;1.10;;;17.80;90.50;;;;;;5044942;28;20065;-61
2021/05/22 04:46:13;;;;;;;2.35;0.90;;;17.70;90.40;;;;;;5032536;28;20025;-61
2021/05/22 04:48:38;;;;;;;2.78;1.02;;;17.80;90.50;;;;;;5033376;28;20033;-61
2021/05/22 04:51:04;;;;;;;2.75;0.80;;;17.70;90.40;;;;;;5035838;28;20099;-60
2021/05/22 04:53:35;;;;;;;2.88;1.00;;;17.70;90.50;;;;;;5053547;28;20476;-61
2021/05/22 04:56:01;;;;;;;3.88;1.02;;;17.70;90.50;;;;;;5041081;28;20120;-60
2021/05/22 04:58:26;;;;;;;3.33;0.90;;;17.70;90.60;;;;;;5032757;28;20155;-61
2021/05/22 05:00:52;;;;;;;3.75;1.00;;;17.70;90.90;;;;;;5035952;28;20017;-62
2021/05/22 05:03:17;;;;;;;3.70;1.20;;;17.70;90.60;;;;;;5052062;28;20079;-61
2021/05/22 05:05:45;;;;;;;4.75;1.10;;;17.70;90.60;;;;;;5044305;28;20034;-62
2021/05/22 05:08:10;;;;;;;4.25;1.30;;;17.70;90.60;;;;;;5032939;28;20021;-61
2021/05/22 05:10:36;;;;;;;3.28;1.08;;;17.70;90.70;;;;;;5031849;28;20040;-62
2021/05/22 05:13:02;;;;;;;3.40;1.00;;;17.60;90.70;;;;;;5053097;28;20112;-61
2021/05/22 05:15:27;;;;;;;5.07;1.20;;;17.60;90.70;;;;;;5052776;28;20148;-61
2021/05/22 05:17:53;;;;;;;3.40;0.82;;;17.60;90.70;;;;;;5032818;28;20049;-61
2021/05/22 05:20:19;;;;;;;3.15;1.17;;;17.70;90.70;;;;;;5032843;28;20025;-61
2021/05/22 05:22:44;;;;;;;2.90;1.00;;;17.70;90.70;;;;;;5042334;28;20029;-61
2021/05/22 05:25:11;;;;;;;3.50;0.88;;;17.70;90.70;;;;;;5051725;28;20029;-61
2021/05/22 05:27:36;;;;;;;3.67;0.98;;;17.70;90.80;;;;;;5051353;28;20067;-61
2021/05/22 05:30:03;;;;;;;3.92;0.90;;;17.70;90.70;;;;;;5051830;28;20107;-62
2021/05/22 05:32:29;;;;;;;2.45;0.80;;;17.70;90.80;;;;;;5050566;28;20040;-61
2021/05/22 05:34:54;;;;;;;3.13;0.98;;;17.70;90.80;;;;;;5051212;28;20465;-61
2021/05/22 05:37:22;;;;;;;2.92;0.70;;;17.70;90.80;;;;;;5033917;28;20032;-60
2021/05/22 05:39:47;;;;;;;2.67;1.10;;;17.60;90.80;;;;;;5032273;28;20441;-60
2021/05/22 05:42:13;;;;;;;4.00;0.93;;;17.70;90.80;;;;;;5043706;28;20067;-61
2021/05/22 05:44:38;;;;;;;2.90;0.70;;;17.60;90.80;;;;;;5052634;28;20025;-61
2021/05/22 05:47:04;;;;;;;3.38;1.23;;;17.60;90.80;;;;;;5050814;28;20031;-62
2021/05/22 05:49:30;;;;;;;2.13;0.82;;;17.60;90.80;;;;;;5037126;28;20072;-61
2021/05/22 05:51:59;;;;;;;3.00;1.00;;;17.60;90.90;;;;;;5036246;28;20029;-61
2021/05/22 05:54:26;;;;;;;3.30;1.02;;;17.60;90.90;;;;;;5042484;28;20108;-62
2021/05/22 05:56:52;;;;;;;3.20;1.00;;;17.60;90.90;;;;;;5031455;28;20455;-61
2021/05/22 05:59:18;;;;;;;3.60;0.82;;;17.60;90.90;;;;;;5032156;28;20073;-61
2021/05/22 06:01:44;;;;;;;4.68;1.00;;;17.60;90.90;;;;;;5046193;28;20396;-61
2021/05/22 06:04:10;;;;;;;3.00;1.02;;;17.60;90.90;;;;;;5051991;28;20021;-61
2021/05/22 06:06:36;;;;;;;3.70;1.13;;;17.60;90.90;;;;;;5044837;28;20025;-61
2021/05/22 06:09:03;;;;;;;2.08;0.82;;;17.60;90.90;;;;;;5051991;28;20021;-61
2021/05/22 06:11:30;;;;;;;3.00;0.75;;;17.60;90.90;;;;;;5046513;28;20035;-62
2021/05/22 06:13:57;;;;;;;3.00;0.90;;;17.60;90.90;;;;;;5039428;28;20100;-62
2021/05/22 06:16:33;;;;;;;5.43;1.05;;;17.60;91.00;;;;;;5038744;28;20032;-62
2021/05/22 06:18:59;;;;;;;2.50;0.85;;;17.60;91.00;;;;;;5051723;28;20037;-62
2021/05/22 06:21:24;;;;;;;3.50;1.27;;;17.60;91.30;;;;;;5042431;28;20049;-62
2021/05/22 06:23:50;;;;;;;2.22;0.88;;;17.60;91.50;;;;;;5049611;28;20075;-62
2021/05/22 06:26:16;;;;;;;3.50;0.90;;;17.50;91.40;;;;;;5051958;28;20112;-62
2021/05/22 06:28:42;;;;;;;3.10;1.00;;;17.60;91.60;;;;;;5048472;28;20116;-62
2021/05/22 06:31:08;;;;;;;4.32;1.10;;;17.60;91.70;;;;;;5036761;28;20239;-62
2021/05/22 06:33:34;;;;;;;4.25;1.00;;;17.60;91.90;;;;;;5050516;28;20033;-62
2021/05/22 06:36:00;;;;;;;3.05;1.10;;;17.60;91.90;;;;;;5039668;28;20025;-62
2021/05/22 06:38:26;;;;;;;4.18;1.10;;;17.60;92.00;;;;;;5030485;28;20032;-62
2021/05/22 06:40:53;;;;;;;4.68;0.85;;;17.50;92.00;;;;;;5031617;28;20377;-62
2021/05/22 06:43:18;;;;;;;5.03;1.27;;;17.60;92.10;;;;;;5011982;28;20059;-60
2021/05/22 06:45:46;;;;;;;3.15;0.90;;;17.60;92.10;;;;;;5033689;28;20029;-62
2021/05/22 06:48:13;;;;;;;6.07;1.17;;;17.60;92.10;;;;;;5030912;28;20029;-60
2021/05/22 06:50:41;;;;;;;2.65;0.85;;;17.60;92.10;;;;;;5035198;28;20037;-60
2021/05/22 06:53:07;;;;;;;4.22;0.90;;;17.50;92.10;;;;;;5054804;28;20037;-61
2021/05/22 06:55:33;;;;;;;4.28;1.13;;;17.50;92.20;;;;;;5052548;28;20025;-61
2021/05/22 06:58:00;;;;;;;4.32;0.82;;;17.50;92.20;;;;;;5055501;28;20388;-62
2021/05/22 07:00:26;;;;;;;5.78;0.80;;;17.50;92.20;;;;;;5052184;28;20491;-62
2021/05/22 07:02:52;;;;;;;4.82;1.00;;;17.50;92.30;;;;;;5042080;28;20115;-62
2021/05/22 07:05:17;;;;;;;4.55;1.08;;;17.50;92.70;;;;;;5036164;28;20461;-61
2021/05/22 07:07:43;;;;;;;5.93;1.35;;;17.50;92.30;;;;;;5050401;28;20392;-62
2021/05/22 07:10:12;;;;;;;3.30;1.00;;;17.50;92.40;;;;;;5036222;28;20071;-62
2021/05/22 07:12:39;;;;;;;6.03;1.20;;;17.50;92.50;;;;;;5055738;28;20052;-63
2021/05/22 07:15:06;;;;;;;4.05;1.13;;;17.50;92.50;;;;;;5052331;28;20021;-62
2021/05/22 07:17:32;;;;;;;3.67;1.00;;;17.50;92.50;;;;;;5037464;28;20113;-62
2021/05/22 07:19:58;;;;;;;4.00;0.95;;;17.60;92.40;;;;;;5034760;28;20097;-62
2021/05/22 07:22:23;;;;;;;4.25;0.90;;;17.50;92.40;;;;;;5048434;28;20032;-61
2021/05/22 07:24:49;;;;;;;4.13;1.13;;;17.50;92.40;;;;;;5055110;28;20435;-61
2021/05/22 07:27:16;;;;;;;3.63;0.90;;;17.60;92.50;;;;;;5040213;28;20028;-62
2021/05/22 07:29:43;;;;;;;4.82;1.17;;;17.50;92.50;;;;;;5034932;28;20087;-62
2021/05/22 07:32:08;;;;;;;5.57;1.52;;;17.50;93.10;;;;;;5040077;28;20023;-61
2021/05/22 07:34:34;;;;;;;3.08;1.10;;;17.40;93.20;;;;;;5039763;28;20033;-61
2021/05/22 07:37:00;;;;;;;5.00;1.02;;;17.30;93.20;;;;;;5034618;28;20041;-62
2021/05/22 07:39:26;;;;;;;4.28;1.20;;;17.40;93.10;;;;;;5033398;28;20512;-62
2021/05/22 07:41:51;;;;;;;5.53;1.20;;;17.50;92.90;;;;;;5032148;28;20018;-61
2021/05/22 07:44:17;;;;;;;2.33;0.75;;;17.50;92.70;;;;;;5033116;28;20489;-62
2021/05/22 07:46:42;;;;;;;3.65;0.90;;;17.60;92.60;;;;;;5032567;28;20056;-61
2021/05/22 07:49:09;;;;;;;4.13;0.63;;;17.60;92.60;;;;;;5033927;28;20092;-61
2021/05/22 07:51:35;;;;;;;4.45;1.00;;;17.60;92.50;;;;;;5040687;28;20542;-62
2021/05/22 07:54:00;;;;;;;4.07;1.00;;;17.70;92.50;;;;;;5052062;28;20029;-61
2021/05/22 07:56:26;;;;;;;2.10;0.85;;;17.70;92.50;;;;;;5033855;28;20033;-61
2021/05/22 07:58:52;;;;;;;3.70;1.02;;;17.70;92.50;;;;;;5033043;28;20481;-62
2021/05/22 08:01:18;;;;;;;3.63;1.23;;;17.70;92.60;;;;;;5039063;28;20013;-61
2021/05/22 08:03:44;;;;;;;5.13;1.42;;;17.70;92.60;;;;;;5053092;28;20025;-62
2021/05/22 08:06:09;;;;;;;7.68;1.85;;;17.60;92.60;;;;;;5042992;28;20025;-62
2021/05/22 08:08:35;;;;;;;5.55;2.10;;;17.60;92.70;;;;;;5034175;28;20111;-62
2021/05/22 08:11:01;;;;;;;6.25;2.05;;;17.60;92.70;;;;;;5031910;28;20045;-61
2021/05/22 08:13:29;;;;;;;4.75;2.17;;;17.60;92.80;;;;;;5037373;28;20391;-61
2021/05/22 08:15:56;;;;;;;5.13;2.20;;;17.70;92.80;;;;;;5034071;28;20105;-61
2021/05/22 08:18:22;;;;;;;6.35;2.90;;;17.70;92.80;;;;;;5032452;28;20026;-62
2021/05/22 08:20:48;;;;;;;5.65;2.60;;;17.70;92.80;;;;;;5040329;28;20029;-60
2021/05/22 08:23:13;;;;;;;6.90;2.75;;;17.70;92.80;;;;;;5030723;28;20025;-61
2021/05/22 08:25:39;;;;;;;7.22;2.65;;;17.80;93.40;;;;;;5032504;28;20473;-61
2021/05/22 08:28:06;;;;;;;8.07;2.80;;;18.00;93.10;;;;;;5032487;28;20064;-60
2021/05/22 08:30:32;;;;;;;6.28;2.70;;;18.10;93.00;;;;;;5031747;28;20509;-60
2021/05/22 08:32:58;;;;;;;6.63;3.03;;;18.20;93.00;;;;;;5032590;28;20056;-61
2021/05/22 08:35:23;;;;;;;6.75;2.35;;;18.30;93.00;;;;;;5033076;28;20021;-61
2021/05/22 08:37:49;;;;;;;8.52;2.78;;;18.30;92.90;;;;;;5033357;28;20033;-61
2021/05/22 08:40:15;;;;;;;8.23;2.83;;;18.40;92.90;;;;;;5031309;28;20040;-61
2021/05/22 08:42:41;;;;;;;5.90;2.28;;;18.50;92.70;;;;;;5035538;28;20032;-61
2021/05/22 08:45:14;;;;;;;4.85;2.20;;;18.50;92.60;;;;;;5032807;28;20034;-61
2021/05/22 08:47:41;;;;;;;5.38;2.50;;;18.60;92.60;;;;;;5035467;28;20036;-61
2021/05/22 08:50:09;;;;;;;6.38;2.17;;;18.60;92.40;;;;;;5030988;28;20045;-61
2021/05/22 08:52:35;;;;;;;5.47;2.05;;;18.70;92.30;;;;;;5045097;28;20047;-60
2021/05/22 08:55:02;;;;;;;5.72;2.55;;;18.70;92.20;;;;;;5032845;28;20465;-60
2021/05/22 08:57:28;;;;;;;5.63;2.38;;;18.80;92.20;;;;;;5032091;28;20026;-62
2021/05/22 08:59:54;;;;;;;5.97;2.50;;;18.90;92.20;;;;;;5032859;28;20045;-62
2021/05/22 09:02:22;;;;;;;4.80;1.85;;;18.90;92.10;;;;;;5044994;28;20029;-62
2021/05/22 09:05:09;;;;;;;4.78;2.20;;;18.90;92.10;;;;;;5048074;28;20451;-61
2021/05/22 09:08:02;;;;;;;5.15;1.65;;;19.00;92.00;;;;;;5035932;28;20531;-62
2021/05/22 09:10:29;;;;;;;5.78;1.85;;;19.00;91.90;;;;;;5032124;28;20079;-62
2021/05/22 09:13:04;;;;;;;4.45;2.00;;;19.00;91.90;;;;;;5045250;28;20022;-62
2021/05/22 09:15:32;;;;;;;3.75;1.65;;;19.10;91.90;;;;;;5032708;28;20017;-62
2021/05/22 09:18:05;;;;;;;5.60;1.80;;;19.10;91.90;;;;;;5030982;28;20128;-62
2021/05/22 09:20:33;;;;;;;4.28;1.65;;;19.10;91.90;;;;;;5032341;28;20037;-62
2021/05/22 09:22:59;;;;;;;5.93;1.60;;;19.10;91.80;;;;;;5031625;28;20049;-62
2021/05/22 09:25:26;;;;;;;4.03;1.50;;;19.10;91.80;;;;;;5031990;28;20063;-62
2021/05/22 09:27:53;;;;;;;4.05;1.50;;;19.20;91.80;;;;;;5032698;28;20421;-62
2021/05/22 09:30:21;;;;;;;4.57;1.42;;;19.20;91.70;;;;;;5031769;28;20053;-62
2021/05/22 09:32:47;;;;;;;3.80;1.73;;;19.30;91.70;;;;;;5043572;28;20033;-62
2021/05/22 09:35:15;;;;;;;3.42;1.60;;;19.30;91.70;;;;;;5039615;28;20105;-62
2021/05/22 09:37:51;;;;;;;4.55;1.35;;;19.30;91.70;;;;;;5032871;28;20051;-62
2021/05/22 09:40:28;;;;;;;4.13;1.50;;;19.30;91.70;;;;;;5032364;28;20580;-60
2021/05/22 09:42:56;;;;;;;3.40;1.10;;;19.30;91.70;;;;;;5038685;28;20478;-65
2021/05/22 09:45:28;;;;;;;4.40;1.45;;;19.30;91.70;;;;;;5032312;28;20040;-64
2021/05/22 09:47:56;;;;;;;4.25;1.50;;;19.40;91.50;;;;;;5037189;28;20025;-61
2021/05/22 09:50:42;;;;;;;9.10;1.58;;;19.40;91.60;;;;;;5037846;28;20508;-68
2021/05/22 09:53:26;;;;;;;3.97;1.45;;;19.50;91.60;;;;;;5018248;28;20037;-66
2021/05/22 09:56:10;;;;;;;3.58;1.27;;;19.50;91.60;;;;;;5029900;28;20017;-66
2021/05/22 09:58:40;;;;;;;3.67;1.23;;;19.50;91.60;;;;;;5029752;28;20041;-64
2021/05/22 10:01:07;;;;;;;3.28;1.02;;;19.50;91.70;;;;;;5029915;28;20036;-70
2021/05/22 10:03:33;;;;;;;5.18;1.45;;;19.50;91.60;;;;;;5036387;28;20036;-71
2021/05/22 10:05:58;;;;;;;2.92;1.02;;;19.70;91.60;;;;;;5037646;28;20041;-68
2021/05/22 10:08:24;;;;;;;4.05;1.20;;;19.60;91.60;;;;;;5031679;28;20022;-71
2021/05/22 10:10:54;;;;;;;4.68;1.35;;;19.80;91.60;;;;;;5030909;28;20350;-70
2021/05/22 10:13:20;;;;;;;4.38;1.02;;;19.80;91.70;;;;;;5043493;28;20029;-71
2021/05/22 10:15:58;;;;;;;4.32;1.25;;;19.80;91.60;;;;;;5032303;28;20036;-71
2021/05/22 10:18:26;;;;;;;2.38;0.93;;;20.00;91.50;;;;;;5027261;28;20141;-70
2021/05/22 10:20:54;;;;;;;4.18;1.38;;;20.10;91.50;;;;;;5032069;28;20033;-71
2021/05/22 10:23:20;;;;;;;2.60;1.10;;;20.00;91.50;;;;;;5041016;28;20029;-65
2021/05/22 10:25:57;;;;;;;4.18;1.00;;;20.00;91.60;;;;;;5046171;28;20370;-72
2021/05/22 10:28:23;;;;;;;2.83;0.98;;;20.00;91.70;;;;;;5033472;28;20032;-71
2021/05/22 10:30:50;;;;;;;3.72;1.30;;;20.00;91.80;;;;;;5031625;28;20025;-69
2021/05/22 10:33:17;;;;;;;2.90;1.10;;;19.90;91.90;;;;;;5037587;28;20021;-71
2021/05/22 10:35:49;;;;;;;3.97;1.00;;;20.00;92.20;;;;;;5040279;28;20159;-61
2021/05/22 10:38:42;;;;;;;2.80;1.10;;;20.00;91.90;;;;;;5035380;28;20071;-69
2021/05/22 10:41:12;;;;;;;3.08;1.00;;;20.00;91.90;;;;;;5038531;28;20038;-66
2021/05/22 10:43:46;;;;;;;4.30;1.40;;;20.20;91.90;;;;;;5031569;28;20116;-65
2021/05/22 10:46:14;;;;;;;2.88;1.10;;;20.40;91.90;;;;;;5035556;28;20029;-66
2021/05/22 10:48:51;;;;;;;2.83;1.30;;;20.10;92.20;;;;;;5032399;28;20025;-64
2021/05/22 10:51:25;;;;;;;2.53;1.02;;;20.10;92.40;;;;;;5033956;28;20033;-63
2021/05/22 10:54:00;;;;;;;1.85;0.80;;;20.60;91.90;;;;;;5042550;28;20029;-63
2021/05/22 10:56:26;;;;;;;3.03;0.70;;;21.30;90.90;;;;;;5033830;28;20032;-67
2021/05/22 10:58:58;;;;;;;2.75;0.80;;;21.20;90.60;;;;;;5030644;28;20112;-68
2021/05/22 11:01:28;;;;;;;2.30;0.60;;;21.80;90.10;;;;;;5035858;28;20350;-68
2021/05/22 11:04:11;;;;;;;2.33;0.70;;;21.60;90.10;;;;;;5046765;28;20037;-67
2021/05/22 11:06:45;;;;;;;1.30;0.57;;;22.20;89.50;;;;;;5032991;28;20033;-71
2021/05/22 11:09:30;;;;;;;1.63;0.70;;;21.90;89.40;;;;;;5044414;28;20470;-71
2021/05/22 11:12:09;;;;;;;1.65;0.55;;;22.30;89.30;;;;;;5038173;28;20068;-70
2021/05/22 11:14:42;;;;;;;1.55;0.60;;;22.00;89.20;;;;;;5035499;28;20539;-72
2021/05/22 11:17:26;;;;;;;1.75;0.80;;;22.30;90.60;;;;;;5031161;28;20107;-72
2021/05/22 11:20:00;;;;;;;1.27;0.50;;;22.20;89.00;;;;;;5034036;28;20096;-72
2021/05/22 11:22:31;;;;;;;1.35;0.60;;;22.00;89.60;;;;;;5033636;28;20025;-71
2021/05/22 11:25:14;;;;;;;1.92;0.60;;;22.00;90.00;;;;;;5040108;28;20032;-69
2021/05/22 11:27:52;;;;;;;2.83;0.75;;;22.00;90.00;;;;;;5040604;28;20052;-72
2021/05/22 11:30:20;;;;;;;1.88;0.60;;;22.10;90.10;;;;;;5034859;28;20488;-72
2021/05/22 11:32:48;;;;;;;2.35;0.30;;;22.20;90.00;;;;;;5030512;28;20112;-71
2021/05/22 11:35:34;;;;;;;1.88;0.47;;;22.20;90.10;;;;;;5041166;28;20021;-71
2021/05/22 11:38:17;;;;;;;1.05;0.50;;;22.30;89.70;;;;;;5038416;28;20448;-70
2021/05/22 11:40:43;;;;;;;1.13;0.43;;;22.30;90.00;;;;;;5049224;28;20061;-68
2021/05/22 11:43:14;;;;;;;0.90;0.30;;;22.30;90.10;;;;;;5025784;28;20053;-70
2021/05/22 11:45:41;;;;;;;1.40;0.45;;;22.30;89.90;;;;;;5032633;28;20026;-71
2021/05/22 11:48:44;;;;;;;0.60;0.30;;;22.30;89.80;;;;;;5033498;28;20052;-73
2021/05/22 11:51:13;;;;;;;1.05;0.35;;;22.20;89.80;;;;;;5031190;28;20079;-73
2021/05/22 11:53:41;;;;;;;0.98;0.40;;;22.00;89.90;;;;;;5043771;28;20029;-73
2021/05/22 11:56:15;;;;;;;1.52;0.43;;;21.80;90.00;;;;;;5032844;28;20060;-74
2021/05/22 11:58:49;;;;;;;1.52;0.40;;;21.70;90.30;;;;;;5034440;28;20037;-74
2021/05/22 12:01:32;;;;;;;1.27;0.30;;;21.60;90.30;;;;;;5037741;28;20035;-76
2021/05/22 12:04:06;;;;;;;1.15;0.47;;;21.60;90.40;;;;;;5039249;28;20553;-70
2021/05/22 12:06:41;;;;;;;2.15;0.60;;;21.50;90.40;;;;;;5032987;28;20049;-71
2021/05/22 12:09:11;;;;;;;2.00;0.60;;;21.40;90.70;;;;;;5033698;28;20096;-70
2021/05/22 12:11:43;;;;;;;1.55;0.50;;;21.40;90.70;;;;;;5033111;28;20042;-70
2021/05/22 12:14:09;;;;;;;2.47;0.52;;;21.60;90.70;;;;;;5033108;28;20029;-69
2021/05/22 12:16:36;;;;;;;1.15;0.40;;;21.70;90.70;;;;;;5034686;28;20034;-69
2021/05/22 12:19:10;;;;;;;1.40;0.45;;;21.90;91.00;;;;;;5038929;28;20025;-65
2021/05/22 12:21:36;;;;;;;0.77;0.30;;;21.90;90.60;;;;;;5040650;28;20055;-63
2021/05/22 12:24:03;;;;;;;0.98;0.40;;;22.00;90.60;;;;;;5039705;28;20477;-64
2021/05/22 12:26:30;;;;;;;1.92;0.60;;;22.00;90.60;;;;;;5032361;28;20033;-66
2021/05/22 12:28:56;;;;;;;2.17;0.65;;;22.20;90.50;;;;;;5040391;28;20479;-65
2021/05/22 12:31:22;;;;;;;1.60;0.52;;;22.20;90.50;;;;;;5035326;28;20033;-67
2021/05/22 12:34:03;;;;;;;1.38;0.30;;;22.30;90.40;;;;;;5034679;28;20036;-69
2021/05/22 12:36:30;;;;;;;2.17;0.60;;;22.30;90.30;;;;;;5032702;28;20048;-68
2021/05/22 12:38:56;;;;;;;1.63;0.50;;;22.40;90.30;;;;;;5032622;28;20465;-67
2021/05/22 12:41:37;;;;;;;1.55;0.40;;;22.40;90.30;;;;;;5038053;28;20028;-64
2021/05/22 12:44:03;;;;;;;2.00;0.40;;;22.50;90.40;;;;;;5032704;28;20449;-64
2021/05/22 12:46:31;;;;;;;2.08;0.50;;;22.40;90.50;;;;;;5041149;28;20107;-67
2021/05/22 12:49:19;;;;;;;1.80;0.40;;;22.50;90.50;;;;;;5033221;28;20541;-64
2021/05/22 12:52:10;;;;;;;2.90;0.52;;;22.50;90.50;;;;;;5032216;28;20065;-65
2021/05/22 12:54:36;;;;;;;4.75;0.50;;;22.50;90.50;;;;;;5034338;28;20061;-67